< < Back
Terminal Aerodrome Forecast


Current Version              Previous Versions:   1  2  3  4  5  6  7  8  9  

Terminal Aerodrome Forecast

059
FTUS42 KFFC 231602 AAA
TAFPDK
TAF AMD
KPDK 231602Z 2316/2412 11010G17KT P6SM FEW045
     FM231900 11012G18KT P6SM SKC
     FM240200 09006KT P6SM SKC=

Latest METAR

227
SAUS70 KWBC 240300 RRI
MTRPDK
METAR KPDK 240253Z 09004KT 10SM CLR 21/09 A3031 RMK AO2 SLP253 T02060094
53006


USA.gov is the U.S. government's official web portal to all federal, state and local government web resources and services.